createdAt,value
2019-05-17T00:08:47.300Z,93025.92
2019-05-17T00:18:51.456Z,93002.97
2019-05-17T00:28:56.259Z,92999.34
2019-05-17T00:38:59.313Z,93008.82
2019-05-17T00:49:06.344Z,93008.52
2019-05-17T00:59:08.401Z,93002.61
2019-05-17T01:09:11.942Z,93001.00
2019-05-17T01:19:16.420Z,93010.26
2019-05-17T01:29:19.179Z,93009.88
2019-05-17T01:39:23.247Z,93009.56
2019-05-17T01:49:27.514Z,92992.53
2019-05-17T01:59:30.069Z,92988.63
2019-05-17T02:09:37.957Z,92979.63
2019-05-17T02:19:38.857Z,92988.45
2019-05-17T02:29:42.460Z,92987.01
2019-05-17T02:39:58.229Z,92988.45
2019-05-17T02:49:54.305Z,92991.10
2019-05-17T02:59:56.900Z,92995.84
2019-05-17T03:10:18.234Z,92991.28
2019-05-17T03:20:08.534Z,92984.86
2019-05-17T03:30:17.039Z,92976.17
2019-05-17T03:40:46.344Z,92982.33
2019-05-17T03:50:29.322Z,92996.34
2019-05-17T04:00:35.295Z,93010.34
2019-05-17T04:10:37.942Z,93007.45
2019-05-17T04:20:43.325Z,93014.25
2019-05-17T04:30:46.082Z,93013.52
2019-05-17T04:40:49.455Z,93001.00
2019-05-17T04:50:53.601Z,93011.19
2019-05-17T05:00:58.050Z,93024.40
2019-05-17T05:11:04.176Z,93020.88
2019-05-17T05:21:08.513Z,93029.08
2019-05-17T05:31:13.119Z,93027.09
2019-05-17T05:41:17.156Z,93025.55
2019-05-17T05:51:21.649Z,93022.59
2019-05-17T06:01:25.241Z,93025.28
2019-05-17T06:11:27.814Z,93027.47
2019-05-17T06:21:31.941Z,93031.56
2019-05-17T06:31:36.993Z,93041.27
2019-05-17T06:41:41.707Z,93033.53
2019-05-17T06:51:45.549Z,93049.22
2019-05-17T07:01:50.274Z,93050.58
2019-05-17T07:11:59.602Z,93056.23
2019-05-17T07:22:05.151Z,93052.34
2019-05-17T07:32:09.830Z,93036.44
2019-05-17T07:42:14.001Z,93049.45
2019-05-17T07:52:17.343Z,93050.63
2019-05-17T08:02:20.702Z,93058.00
2019-05-17T08:12:24.446Z,93051.59
2019-05-17T08:22:29.382Z,93045.42
2019-05-17T08:32:32.987Z,93041.86
2019-05-17T08:42:35.585Z,93031.20
2019-05-17T08:52:40.312Z,93027.36
2019-05-17T09:02:44.723Z,93023.81
2019-05-17T09:12:50.086Z,93018.09
2019-05-17T09:22:52.536Z,93025.86
2019-05-17T09:32:56.969Z,93015.16
2019-05-17T09:43:00.645Z,93002.92
2019-05-17T09:53:10.430Z,93008.55
2019-05-17T10:03:13.329Z,93012.20
2019-05-17T10:13:20.107Z,93001.09
2019-05-17T10:23:23.290Z,92995.70
2019-05-17T10:33:26.642Z,92998.84
2019-05-17T10:43:31.711Z,93005.41
2019-05-17T10:53:34.284Z,92998.77
2019-05-17T11:03:39.732Z,92997.58
2019-05-17T11:13:43.082Z,92900.88
2019-05-17T11:23:47.286Z,92990.95
2019-05-17T11:33:49.867Z,92977.29
2019-05-17T11:43:52.519Z,92979.99
2019-05-17T11:53:56.994Z,92977.75
2019-05-17T12:04:02.291Z,92981.16
2019-05-17T12:14:07.480Z,92975.41
2019-05-17T12:24:10.050Z,92965.69
2019-05-17T12:34:12.615Z,92971.25
2019-05-17T12:44:15.177Z,92959.42
2019-05-17T12:54:17.754Z,92946.44
2019-05-17T13:04:20.335Z,92950.02
2019-05-17T13:14:27.625Z,92933.78
2019-05-17T13:24:34.272Z,92915.46
2019-05-17T13:34:40.211Z,92924.98
2019-05-17T13:44:45.805Z,92932.27
2019-05-17T13:54:49.586Z,92944.64
2019-05-17T14:04:54.481Z,92957.76
2019-05-17T14:14:58.449Z,92946.86
2019-05-17T14:25:01.810Z,92966.97
2019-05-17T14:35:06.577Z,92956.95
2019-05-17T14:45:12.388Z,92987.86
2019-05-17T14:55:16.452Z,92992.71
2019-05-17T15:05:19.182Z,92973.24
2019-05-17T15:15:26.745Z,92970.66
2019-05-17T15:25:30.450Z,92958.39
2019-05-17T15:35:33.787Z,92936.75
2019-05-17T15:45:37.114Z,92963.33
2019-05-17T15:55:41.651Z,92956.88
2019-05-17T16:05:48.776Z,92950.87
2019-05-17T16:15:52.938Z,92980.80
2019-05-17T16:25:56.224Z,92963.37
2019-05-17T16:35:59.117Z,92975.05
2019-05-17T16:46:06.966Z,92979.72
2019-05-17T16:56:09.655Z,92985.21
2019-05-17T17:06:12.971Z,92977.18
2019-05-17T17:16:18.060Z,93004.74
2019-05-17T17:26:21.324Z,93010.97
2019-05-17T17:36:24.217Z,92989.75
2019-05-17T17:46:27.563Z,92995.84
2019-05-17T17:56:32.486Z,92990.31
2019-05-17T18:06:35.654Z,93015.39
2019-05-17T18:16:38.225Z,93017.84
2019-05-17T18:26:41.054Z,93011.51
2019-05-17T18:36:43.676Z,93003.01
2019-05-17T18:46:51.228Z,93007.51
2019-05-17T18:56:54.008Z,93013.89
2019-05-17T19:06:57.612Z,93038.31
2019-05-17T19:17:02.470Z,93039.31
2019-05-17T19:27:08.066Z,93045.45
2019-05-17T19:37:10.647Z,93052.39
2019-05-17T19:47:14.786Z,93071.54
2019-05-17T19:57:19.871Z,93069.57
2019-05-17T20:07:23.939Z,93062.15
2019-05-17T20:17:28.678Z,93033.30
2019-05-17T20:27:31.993Z,93018.40
2019-05-17T20:37:34.577Z,93017.36
2019-05-17T20:47:37.680Z,93018.15
2019-05-17T20:57:41.125Z,93014.78
2019-05-17T21:07:44.799Z,93006.47
2019-05-17T21:17:49.130Z,93019.87
2019-05-17T21:27:54.157Z,93020.20
2019-05-17T21:37:57.480Z,93012.17
2019-05-17T21:48:00.510Z,93019.30
2019-05-17T21:58:05.012Z,93027.58
2019-05-17T22:08:08.448Z,93035.52
2019-05-17T22:18:11.012Z,93027.09
2019-05-17T22:28:14.641Z,93010.70
2019-05-17T22:38:18.153Z,93002.38
2019-05-17T22:48:20.847Z,92993.43
2019-05-17T22:58:24.002Z,92980.80
2019-05-17T23:08:27.426Z,92980.91
2019-05-17T23:18:34.103Z,92983.66
2019-05-17T23:28:36.669Z,92997.06
2019-05-17T23:38:39.541Z,93010.65
2019-05-17T23:48:44.478Z,93021.88
2019-05-17T23:58:48.547Z,93022.66
